sensor_id;sensor_type;location;lat;lon;timestamp;P1;durP1;ratioP1;P2;durP2;ratioP2
7057;SDS011;3570;43.080;25.628;2022-10-16T00:01:20;9.93;;;6.80;;
7057;SDS011;3570;43.080;25.628;2022-10-16T00:03:48;9.70;;;6.80;;
7057;SDS011;3570;43.080;25.628;2022-10-16T00:06:15;11.03;;;6.90;;
7057;SDS011;3570;43.080;25.628;2022-10-16T00:08:42;6.97;;;6.00;;
7057;SDS011;3570;43.080;25.628;2022-10-16T00:11:18;10.67;;;6.17;;
7057;SDS011;3570;43.080;25.628;2022-10-16T00:13:44;7.43;;;6.17;;
7057;SDS011;3570;43.080;25.628;2022-10-16T00:16:30;9.33;;;6.43;;
7057;SDS011;3570;43.080;25.628;2022-10-16T00:19:14;8.37;;;5.90;;
7057;SDS011;3570;43.080;25.628;2022-10-16T00:21:59;9.47;;;5.80;;
7057;SDS011;3570;43.080;25.628;2022-10-16T00:24:43;9.27;;;6.23;;
7057;SDS011;3570;43.080;25.628;2022-10-16T00:27:27;9.50;;;6.40;;
7057;SDS011;3570;43.080;25.628;2022-10-16T00:30:11;9.07;;;6.37;;
7057;SDS011;3570;43.080;25.628;2022-10-16T00:32:55;9.00;;;7.07;;
7057;SDS011;3570;43.080;25.628;2022-10-16T00:35:39;9.33;;;6.53;;
7057;SDS011;3570;43.080;25.628;2022-10-16T00:38:23;6.83;;;5.77;;
7057;SDS011;3570;43.080;25.628;2022-10-16T00:41:09;8.53;;;6.57;;
7057;SDS011;3570;43.080;25.628;2022-10-16T00:43:56;8.83;;;6.40;;
7057;SDS011;3570;43.080;25.628;2022-10-16T00:46:42;8.70;;;5.83;;
7057;SDS011;3570;43.080;25.628;2022-10-16T00:49:26;9.90;;;6.93;;
7057;SDS011;3570;43.080;25.628;2022-10-16T00:52:10;12.70;;;6.17;;
7057;SDS011;3570;43.080;25.628;2022-10-16T00:54:55;9.73;;;6.83;;
7057;SDS011;3570;43.080;25.628;2022-10-16T00:57:40;10.20;;;6.33;;
7057;SDS011;3570;43.080;25.628;2022-10-16T01:00:26;9.67;;;6.43;;
7057;SDS011;3570;43.080;25.628;2022-10-16T01:13:09;11.33;;;6.50;;
7057;SDS011;3570;43.080;25.628;2022-10-16T01:18:43;5.93;;;5.33;;
7057;SDS011;3570;43.080;25.628;2022-10-16T01:21:33;7.60;;;5.90;;
7057;SDS011;3570;43.080;25.628;2022-10-16T01:27:25;7.67;;;5.67;;
7057;SDS011;3570;43.080;25.628;2022-10-16T01:30:13;8.30;;;6.23;;
7057;SDS011;3570;43.080;25.628;2022-10-16T01:33:03;9.27;;;6.03;;
7057;SDS011;3570;43.080;25.628;2022-10-16T01:35:55;7.43;;;5.80;;
7057;SDS011;3570;43.080;25.628;2022-10-16T01:38:46;8.23;;;5.97;;
7057;SDS011;3570;43.080;25.628;2022-10-16T01:41:33;8.17;;;5.53;;
7057;SDS011;3570;43.080;25.628;2022-10-16T01:44:24;7.63;;;6.53;;
7057;SDS011;3570;43.080;25.628;2022-10-16T01:47:13;8.07;;;5.80;;
7057;SDS011;3570;43.080;25.628;2022-10-16T01:49:59;6.83;;;5.73;;
7057;SDS011;3570;43.080;25.628;2022-10-16T01:52:46;8.60;;;6.57;;
7057;SDS011;3570;43.080;25.628;2022-10-16T01:55:35;7.20;;;5.87;;
7057;SDS011;3570;43.080;25.628;2022-10-16T01:58:22;7.13;;;5.57;;
7057;SDS011;3570;43.080;25.628;2022-10-16T02:01:08;8.97;;;6.27;;
7057;SDS011;3570;43.080;25.628;2022-10-16T02:03:57;9.27;;;6.40;;
7057;SDS011;3570;43.080;25.628;2022-10-16T02:06:45;7.27;;;5.83;;
7057;SDS011;3570;43.080;25.628;2022-10-16T02:09:29;8.77;;;6.00;;
7057;SDS011;3570;43.080;25.628;2022-10-16T02:12:25;7.40;;;5.60;;
7057;SDS011;3570;43.080;25.628;2022-10-16T02:15:11;7.50;;;5.70;;
7057;SDS011;3570;43.080;25.628;2022-10-16T02:17:55;10.17;;;6.73;;
7057;SDS011;3570;43.080;25.628;2022-10-16T02:20:51;8.50;;;5.60;;
7057;SDS011;3570;43.080;25.628;2022-10-16T02:23:49;7.50;;;5.67;;
7057;SDS011;3570;43.080;25.628;2022-10-16T02:29:28;9.73;;;5.70;;
7057;SDS011;3570;43.080;25.628;2022-10-16T02:32:12;10.03;;;5.97;;
7057;SDS011;3570;43.080;25.628;2022-10-16T02:34:59;8.43;;;5.70;;
7057;SDS011;3570;43.080;25.628;2022-10-16T02:37:45;8.67;;;5.50;;
7057;SDS011;3570;43.080;25.628;2022-10-16T02:40:31;8.03;;;5.87;;
7057;SDS011;3570;43.080;25.628;2022-10-16T02:43:16;9.50;;;6.43;;
7057;SDS011;3570;43.080;25.628;2022-10-16T02:46:00;5.90;;;5.23;;
7057;SDS011;3570;43.080;25.628;2022-10-16T02:48:45;8.63;;;5.73;;
7057;SDS011;3570;43.080;25.628;2022-10-16T02:51:29;8.07;;;5.20;;
7057;SDS011;3570;43.080;25.628;2022-10-16T02:54:13;9.67;;;5.47;;
7057;SDS011;3570;43.080;25.628;2022-10-16T02:56:56;6.67;;;5.13;;
7057;SDS011;3570;43.080;25.628;2022-10-16T02:59:41;8.07;;;5.60;;
7057;SDS011;3570;43.080;25.628;2022-10-16T03:02:25;13.37;;;5.80;;
7057;SDS011;3570;43.080;25.628;2022-10-16T03:05:09;8.30;;;6.00;;
7057;SDS011;3570;43.080;25.628;2022-10-16T03:07:53;7.83;;;5.37;;
7057;SDS011;3570;43.080;25.628;2022-10-16T03:10:37;8.20;;;5.97;;
7057;SDS011;3570;43.080;25.628;2022-10-16T03:13:21;9.73;;;6.20;;
7057;SDS011;3570;43.080;25.628;2022-10-16T03:16:05;6.40;;;5.07;;
7057;SDS011;3570;43.080;25.628;2022-10-16T03:18:49;7.43;;;5.77;;
7057;SDS011;3570;43.080;25.628;2022-10-16T03:21:33;8.43;;;6.40;;
7057;SDS011;3570;43.080;25.628;2022-10-16T03:24:17;12.93;;;5.83;;
7057;SDS011;3570;43.080;25.628;2022-10-16T03:27:01;6.63;;;5.37;;
7057;SDS011;3570;43.080;25.628;2022-10-16T03:29:45;11.53;;;5.80;;
7057;SDS011;3570;43.080;25.628;2022-10-16T03:32:29;7.50;;;5.90;;
7057;SDS011;3570;43.080;25.628;2022-10-16T03:35:13;7.53;;;5.67;;
7057;SDS011;3570;43.080;25.628;2022-10-16T03:37:57;8.00;;;6.57;;
7057;SDS011;3570;43.080;25.628;2022-10-16T03:40:41;9.77;;;6.07;;
7057;SDS011;3570;43.080;25.628;2022-10-16T03:43:25;7.87;;;5.90;;
7057;SDS011;3570;43.080;25.628;2022-10-16T03:46:09;7.40;;;5.80;;
7057;SDS011;3570;43.080;25.628;2022-10-16T03:48:53;7.73;;;6.20;;
7057;SDS011;3570;43.080;25.628;2022-10-16T03:51:37;8.40;;;6.23;;
7057;SDS011;3570;43.080;25.628;2022-10-16T03:54:20;10.20;;;6.43;;
7057;SDS011;3570;43.080;25.628;2022-10-16T03:57:05;10.07;;;6.70;;
7057;SDS011;3570;43.080;25.628;2022-10-16T03:59:49;8.27;;;6.37;;
7057;SDS011;3570;43.080;25.628;2022-10-16T04:02:34;10.20;;;5.90;;
7057;SDS011;3570;43.080;25.628;2022-10-16T04:05:18;14.23;;;6.63;;
7057;SDS011;3570;43.080;25.628;2022-10-16T04:08:02;9.60;;;6.13;;
7057;SDS011;3570;43.080;25.628;2022-10-16T04:10:47;7.50;;;6.00;;
7057;SDS011;3570;43.080;25.628;2022-10-16T04:13:31;8.27;;;5.83;;
7057;SDS011;3570;43.080;25.628;2022-10-16T04:16:15;8.93;;;5.87;;
7057;SDS011;3570;43.080;25.628;2022-10-16T04:18:59;8.87;;;5.57;;
7057;SDS011;3570;43.080;25.628;2022-10-16T04:21:43;10.93;;;6.43;;
7057;SDS011;3570;43.080;25.628;2022-10-16T04:24:27;7.47;;;5.57;;
7057;SDS011;3570;43.080;25.628;2022-10-16T04:27:11;9.00;;;5.80;;
7057;SDS011;3570;43.080;25.628;2022-10-16T04:29:55;8.43;;;5.17;;
7057;SDS011;3570;43.080;25.628;2022-10-16T04:32:39;10.73;;;5.60;;
7057;SDS011;3570;43.080;25.628;2022-10-16T04:35:24;6.73;;;5.47;;
7057;SDS011;3570;43.080;25.628;2022-10-16T04:38:08;6.77;;;5.23;;
7057;SDS011;3570;43.080;25.628;2022-10-16T04:40:52;7.77;;;5.20;;
7057;SDS011;3570;43.080;25.628;2022-10-16T04:43:36;11.07;;;6.27;;
7057;SDS011;3570;43.080;25.628;2022-10-16T04:46:19;7.43;;;6.10;;
7057;SDS011;3570;43.080;25.628;2022-10-16T04:49:03;8.27;;;5.77;;
7057;SDS011;3570;43.080;25.628;2022-10-16T04:51:48;9.63;;;6.00;;
7057;SDS011;3570;43.080;25.628;2022-10-16T04:54:32;7.03;;;5.63;;
7057;SDS011;3570;43.080;25.628;2022-10-16T04:57:16;10.33;;;6.13;;
7057;SDS011;3570;43.080;25.628;2022-10-16T05:00:00;7.67;;;5.30;;
7057;SDS011;3570;43.080;25.628;2022-10-16T05:02:44;10.33;;;6.50;;
7057;SDS011;3570;43.080;25.628;2022-10-16T05:05:28;7.77;;;5.67;;
7057;SDS011;3570;43.080;25.628;2022-10-16T05:08:12;7.23;;;5.50;;
7057;SDS011;3570;43.080;25.628;2022-10-16T05:10:58;7.43;;;5.50;;
7057;SDS011;3570;43.080;25.628;2022-10-16T05:13:42;9.67;;;6.10;;
7057;SDS011;3570;43.080;25.628;2022-10-16T05:16:26;7.10;;;5.87;;
7057;SDS011;3570;43.080;25.628;2022-10-16T05:19:10;7.63;;;5.40;;
7057;SDS011;3570;43.080;25.628;2022-10-16T05:21:54;10.60;;;5.63;;
7057;SDS011;3570;43.080;25.628;2022-10-16T05:24:39;11.37;;;5.97;;
7057;SDS011;3570;43.080;25.628;2022-10-16T05:27:22;8.13;;;5.60;;
7057;SDS011;3570;43.080;25.628;2022-10-16T05:30:06;8.93;;;5.83;;
7057;SDS011;3570;43.080;25.628;2022-10-16T05:32:51;9.70;;;6.13;;
7057;SDS011;3570;43.080;25.628;2022-10-16T05:35:35;7.03;;;5.23;;
7057;SDS011;3570;43.080;25.628;2022-10-16T05:38:19;10.83;;;5.70;;
7057;SDS011;3570;43.080;25.628;2022-10-16T05:41:03;8.47;;;6.00;;
7057;SDS011;3570;43.080;25.628;2022-10-16T05:43:48;7.87;;;5.80;;
7057;SDS011;3570;43.080;25.628;2022-10-16T05:46:32;7.30;;;5.60;;
7057;SDS011;3570;43.080;25.628;2022-10-16T05:49:17;7.93;;;5.33;;
7057;SDS011;3570;43.080;25.628;2022-10-16T05:52:00;10.70;;;6.33;;
7057;SDS011;3570;43.080;25.628;2022-10-16T05:54:45;8.30;;;5.70;;
7057;SDS011;3570;43.080;25.628;2022-10-16T05:57:29;10.13;;;6.07;;
7057;SDS011;3570;43.080;25.628;2022-10-16T06:00:13;6.30;;;5.70;;
7057;SDS011;3570;43.080;25.628;2022-10-16T06:02:58;9.93;;;6.23;;
7057;SDS011;3570;43.080;25.628;2022-10-16T06:05:42;8.63;;;6.03;;
7057;SDS011;3570;43.080;25.628;2022-10-16T06:08:26;9.07;;;6.17;;
7057;SDS011;3570;43.080;25.628;2022-10-16T06:11:12;9.80;;;6.93;;
7057;SDS011;3570;43.080;25.628;2022-10-16T06:14:07;8.57;;;6.17;;
7057;SDS011;3570;43.080;25.628;2022-10-16T06:16:52;9.17;;;6.43;;
7057;SDS011;3570;43.080;25.628;2022-10-16T06:19:36;7.93;;;5.83;;
7057;SDS011;3570;43.080;25.628;2022-10-16T06:22:19;11.20;;;7.03;;
7057;SDS011;3570;43.080;25.628;2022-10-16T06:25:03;8.80;;;6.27;;
7057;SDS011;3570;43.080;25.628;2022-10-16T06:27:48;9.33;;;6.27;;
7057;SDS011;3570;43.080;25.628;2022-10-16T06:30:32;8.77;;;6.40;;
7057;SDS011;3570;43.080;25.628;2022-10-16T06:33:16;8.23;;;6.10;;
7057;SDS011;3570;43.080;25.628;2022-10-16T06:36:02;8.23;;;6.20;;
7057;SDS011;3570;43.080;25.628;2022-10-16T06:38:52;9.40;;;6.13;;
7057;SDS011;3570;43.080;25.628;2022-10-16T06:41:37;8.63;;;6.20;;
7057;SDS011;3570;43.080;25.628;2022-10-16T06:44:22;9.27;;;6.17;;
7057;SDS011;3570;43.080;25.628;2022-10-16T06:47:06;9.77;;;6.50;;
7057;SDS011;3570;43.080;25.628;2022-10-16T06:49:53;9.13;;;6.80;;
7057;SDS011;3570;43.080;25.628;2022-10-16T06:52:37;9.33;;;6.33;;
7057;SDS011;3570;43.080;25.628;2022-10-16T06:55:20;9.00;;;6.10;;
7057;SDS011;3570;43.080;25.628;2022-10-16T06:58:04;8.20;;;6.20;;
7057;SDS011;3570;43.080;25.628;2022-10-16T07:00:48;9.10;;;6.07;;
7057;SDS011;3570;43.080;25.628;2022-10-16T07:03:38;8.33;;;6.43;;
7057;SDS011;3570;43.080;25.628;2022-10-16T07:06:24;9.80;;;5.70;;
7057;SDS011;3570;43.080;25.628;2022-10-16T07:09:10;12.37;;;6.50;;
7057;SDS011;3570;43.080;25.628;2022-10-16T07:11:55;11.47;;;6.80;;
7057;SDS011;3570;43.080;25.628;2022-10-16T07:14:39;11.70;;;6.50;;
7057;SDS011;3570;43.080;25.628;2022-10-16T07:17:23;11.67;;;6.93;;
7057;SDS011;3570;43.080;25.628;2022-10-16T07:20:07;13.23;;;6.87;;
7057;SDS011;3570;43.080;25.628;2022-10-16T07:22:52;8.87;;;6.10;;
7057;SDS011;3570;43.080;25.628;2022-10-16T07:25:35;9.30;;;6.37;;
7057;SDS011;3570;43.080;25.628;2022-10-16T07:28:19;11.93;;;6.23;;
7057;SDS011;3570;43.080;25.628;2022-10-16T07:31:04;10.83;;;6.27;;
7057;SDS011;3570;43.080;25.628;2022-10-16T07:33:50;8.93;;;6.23;;
7057;SDS011;3570;43.080;25.628;2022-10-16T07:36:35;11.27;;;5.70;;
7057;SDS011;3570;43.080;25.628;2022-10-16T07:39:19;9.23;;;6.13;;
7057;SDS011;3570;43.080;25.628;2022-10-16T07:42:03;8.57;;;5.60;;
7057;SDS011;3570;43.080;25.628;2022-10-16T07:44:47;12.10;;;6.50;;
7057;SDS011;3570;43.080;25.628;2022-10-16T07:47:31;8.60;;;6.20;;
7057;SDS011;3570;43.080;25.628;2022-10-16T07:50:15;9.27;;;6.43;;
7057;SDS011;3570;43.080;25.628;2022-10-16T07:52:59;9.90;;;5.77;;
7057;SDS011;3570;43.080;25.628;2022-10-16T07:55:43;10.40;;;5.87;;
7057;SDS011;3570;43.080;25.628;2022-10-16T07:58:27;8.37;;;5.87;;
7057;SDS011;3570;43.080;25.628;2022-10-16T08:01:13;6.83;;;5.70;;
7057;SDS011;3570;43.080;25.628;2022-10-16T08:03:59;10.30;;;6.70;;
7057;SDS011;3570;43.080;25.628;2022-10-16T08:06:43;7.60;;;5.83;;
7057;SDS011;3570;43.080;25.628;2022-10-16T08:09:27;8.10;;;5.73;;
7057;SDS011;3570;43.080;25.628;2022-10-16T08:12:11;7.90;;;5.43;;
7057;SDS011;3570;43.080;25.628;2022-10-16T08:14:55;8.67;;;6.13;;
7057;SDS011;3570;43.080;25.628;2022-10-16T08:17:39;9.13;;;6.10;;
7057;SDS011;3570;43.080;25.628;2022-10-16T08:20:23;9.17;;;5.93;;
7057;SDS011;3570;43.080;25.628;2022-10-16T08:23:12;7.50;;;5.43;;
7057;SDS011;3570;43.080;25.628;2022-10-16T08:26:04;10.50;;;6.50;;
7057;SDS011;3570;43.080;25.628;2022-10-16T08:28:49;5.60;;;4.60;;
7057;SDS011;3570;43.080;25.628;2022-10-16T08:31:34;8.30;;;5.30;;
7057;SDS011;3570;43.080;25.628;2022-10-16T08:34:19;6.00;;;4.77;;
7057;SDS011;3570;43.080;25.628;2022-10-16T08:37:02;7.17;;;4.93;;
7057;SDS011;3570;43.080;25.628;2022-10-16T08:39:47;7.20;;;5.10;;
7057;SDS011;3570;43.080;25.628;2022-10-16T08:48:39;6.17;;;4.43;;
7057;SDS011;3570;43.080;25.628;2022-10-16T08:51:32;6.97;;;5.13;;
7057;SDS011;3570;43.080;25.628;2022-10-16T08:57:24;6.53;;;4.83;;
7057;SDS011;3570;43.080;25.628;2022-10-16T09:00:13;6.63;;;4.80;;
7057;SDS011;3570;43.080;25.628;2022-10-16T09:03:07;4.70;;;3.93;;
7057;SDS011;3570;43.080;25.628;2022-10-16T09:12:25;4.53;;;3.80;;
7057;SDS011;3570;43.080;25.628;2022-10-16T09:21:44;7.10;;;3.50;;
7057;SDS011;3570;43.080;25.628;2022-10-16T09:24:29;7.53;;;4.20;;
7057;SDS011;3570;43.080;25.628;2022-10-16T09:27:14;6.73;;;4.43;;
7057;SDS011;3570;43.080;25.628;2022-10-16T09:29:59;3.90;;;3.40;;
7057;SDS011;3570;43.080;25.628;2022-10-16T09:32:43;5.70;;;3.50;;
7057;SDS011;3570;43.080;25.628;2022-10-16T09:35:39;5.30;;;3.97;;
7057;SDS011;3570;43.080;25.628;2022-10-16T09:44:03;5.97;;;3.30;;
7057;SDS011;3570;43.080;25.628;2022-10-16T09:47:00;8.03;;;3.60;;
7057;SDS011;3570;43.080;25.628;2022-10-16T09:49:50;4.27;;;2.90;;
7057;SDS011;3570;43.080;25.628;2022-10-16T09:52:45;7.30;;;3.10;;
7057;SDS011;3570;43.080;25.628;2022-10-16T09:55:29;6.80;;;3.53;;
7057;SDS011;3570;43.080;25.628;2022-10-16T09:58:13;5.97;;;3.10;;
7057;SDS011;3570;43.080;25.628;2022-10-16T10:00:57;4.90;;;3.00;;
7057;SDS011;3570;43.080;25.628;2022-10-16T10:03:42;4.63;;;2.87;;
7057;SDS011;3570;43.080;25.628;2022-10-16T10:06:37;3.45;;;3.08;;
7057;SDS011;3570;43.080;25.628;2022-10-16T10:09:27;3.42;;;2.80;;
7057;SDS011;3570;43.080;25.628;2022-10-16T10:12:18;3.65;;;3.05;;
7057;SDS011;3570;43.080;25.628;2022-10-16T10:15:06;4.28;;;3.35;;
7057;SDS011;3570;43.080;25.628;2022-10-16T10:17:54;6.13;;;3.28;;
7057;SDS011;3570;43.080;25.628;2022-10-16T10:20:40;4.32;;;2.70;;
7057;SDS011;3570;43.080;25.628;2022-10-16T10:23:25;3.28;;;2.97;;
7057;SDS011;3570;43.080;25.628;2022-10-16T10:26:18;3.85;;;3.35;;
7057;SDS011;3570;43.080;25.628;2022-10-16T10:29:14;3.88;;;3.22;;
7057;SDS011;3570;43.080;25.628;2022-10-16T10:32:13;4.25;;;3.22;;
7057;SDS011;3570;43.080;25.628;2022-10-16T10:35:52;5.70;;;3.15;;
7057;SDS011;3570;43.080;25.628;2022-10-16T10:38:31;4.15;;;3.00;;
7057;SDS011;3570;43.080;25.628;2022-10-16T10:44:16;3.85;;;3.15;;
7057;SDS011;3570;43.080;25.628;2022-10-16T11:02:44;3.70;;;3.15;;
7057;SDS011;3570;43.080;25.628;2022-10-16T11:05:39;5.03;;;3.22;;
7057;SDS011;3570;43.080;25.628;2022-10-16T11:08:28;3.75;;;3.10;;
7057;SDS011;3570;43.080;25.628;2022-10-16T11:11:25;4.68;;;3.30;;
7057;SDS011;3570;43.080;25.628;2022-10-16T11:14:18;5.50;;;3.58;;
7057;SDS011;3570;43.080;25.628;2022-10-16T11:20:13;4.95;;;3.80;;
7057;SDS011;3570;43.080;25.628;2022-10-16T11:26:18;7.38;;;3.63;;
7057;SDS011;3570;43.080;25.628;2022-10-16T11:29:12;4.38;;;3.42;;
7057;SDS011;3570;43.080;25.628;2022-10-16T11:32:21;4.40;;;3.50;;
7057;SDS011;3570;43.080;25.628;2022-10-16T11:35:19;7.38;;;3.80;;
7057;SDS011;3570;43.080;25.628;2022-10-16T11:38:32;6.00;;;3.53;;
7057;SDS011;3570;43.080;25.628;2022-10-16T11:47:24;3.85;;;3.38;;
7057;SDS011;3570;43.080;25.628;2022-10-16T11:56:30;7.13;;;3.95;;
7057;SDS011;3570;43.080;25.628;2022-10-16T12:08:08;5.32;;;4.22;;
7057;SDS011;3570;43.080;25.628;2022-10-16T12:11:07;3.55;;;3.10;;
7057;SDS011;3570;43.080;25.628;2022-10-16T12:16:57;3.75;;;3.10;;
7057;SDS011;3570;43.080;25.628;2022-10-16T12:19:43;5.28;;;3.58;;
7057;SDS011;3570;43.080;25.628;2022-10-16T12:22:28;5.18;;;3.42;;
7057;SDS011;3570;43.080;25.628;2022-10-16T12:25:53;4.22;;;3.22;;
7057;SDS011;3570;43.080;25.628;2022-10-16T12:28:30;4.75;;;3.50;;
7057;SDS011;3570;43.080;25.628;2022-10-16T12:31:16;6.38;;;3.47;;
7057;SDS011;3570;43.080;25.628;2022-10-16T12:34:03;5.25;;;2.95;;
7057;SDS011;3570;43.080;25.628;2022-10-16T12:36:47;6.05;;;3.40;;
7057;SDS011;3570;43.080;25.628;2022-10-16T12:39:32;4.43;;;3.45;;
7057;SDS011;3570;43.080;25.628;2022-10-16T12:45:25;4.78;;;3.38;;
7057;SDS011;3570;43.080;25.628;2022-10-16T12:48:19;4.32;;;3.90;;
7057;SDS011;3570;43.080;25.628;2022-10-16T12:51:12;5.45;;;4.15;;
7057;SDS011;3570;43.080;25.628;2022-10-16T12:54:38;5.10;;;4.07;;
7057;SDS011;3570;43.080;25.628;2022-10-16T13:10:09;7.40;;;3.28;;
7057;SDS011;3570;43.080;25.628;2022-10-16T13:21:48;3.13;;;2.80;;
7057;SDS011;3570;43.080;25.628;2022-10-16T13:30:30;3.80;;;2.95;;
7057;SDS011;3570;43.080;25.628;2022-10-16T13:36:24;3.20;;;2.70;;
7057;SDS011;3570;43.080;25.628;2022-10-16T13:39:14;4.38;;;2.90;;
7057;SDS011;3570;43.080;25.628;2022-10-16T13:42:05;3.95;;;2.80;;
7057;SDS011;3570;43.080;25.628;2022-10-16T13:44:56;3.45;;;2.72;;
7057;SDS011;3570;43.080;25.628;2022-10-16T13:47:40;4.53;;;3.13;;
7057;SDS011;3570;43.080;25.628;2022-10-16T13:50:24;3.75;;;2.90;;
7057;SDS011;3570;43.080;25.628;2022-10-16T13:53:12;4.45;;;3.10;;
7057;SDS011;3570;43.080;25.628;2022-10-16T13:55:58;4.15;;;2.88;;
7057;SDS011;3570;43.080;25.628;2022-10-16T13:58:44;5.03;;;3.45;;
7057;SDS011;3570;43.080;25.628;2022-10-16T14:01:29;7.47;;;2.92;;
7057;SDS011;3570;43.080;25.628;2022-10-16T14:04:14;4.43;;;3.03;;
7057;SDS011;3570;43.080;25.628;2022-10-16T14:06:59;3.28;;;2.70;;
7057;SDS011;3570;43.080;25.628;2022-10-16T14:09:47;5.03;;;3.08;;
7057;SDS011;3570;43.080;25.628;2022-10-16T14:12:34;4.32;;;3.15;;
7057;SDS011;3570;43.080;25.628;2022-10-16T14:15:18;5.80;;;3.20;;
7057;SDS011;3570;43.080;25.628;2022-10-16T14:18:03;3.90;;;2.83;;
7057;SDS011;3570;43.080;25.628;2022-10-16T14:20:48;3.22;;;2.92;;
7057;SDS011;3570;43.080;25.628;2022-10-16T14:23:35;3.13;;;2.83;;
7057;SDS011;3570;43.080;25.628;2022-10-16T14:26:27;2.63;;;2.42;;
7057;SDS011;3570;43.080;25.628;2022-10-16T14:29:13;3.45;;;3.15;;
7057;SDS011;3570;43.080;25.628;2022-10-16T14:31:59;3.55;;;2.95;;
7057;SDS011;3570;43.080;25.628;2022-10-16T14:34:52;4.78;;;3.08;;
7057;SDS011;3570;43.080;25.628;2022-10-16T14:37:37;3.03;;;2.72;;
7057;SDS011;3570;43.080;25.628;2022-10-16T14:40:23;4.35;;;2.75;;
7057;SDS011;3570;43.080;25.628;2022-10-16T14:43:14;4.43;;;2.65;;
7057;SDS011;3570;43.080;25.628;2022-10-16T14:46:22;3.13;;;2.53;;
7057;SDS011;3570;43.080;25.628;2022-10-16T14:49:15;5.38;;;2.80;;
7057;SDS011;3570;43.080;25.628;2022-10-16T14:51:47;4.15;;;3.28;;
7057;SDS011;3570;43.080;25.628;2022-10-16T14:54:16;5.43;;;3.00;;
7057;SDS011;3570;43.080;25.628;2022-10-16T14:56:56;4.72;;;3.30;;
7057;SDS011;3570;43.080;25.628;2022-10-16T15:02:02;5.03;;;3.10;;
7057;SDS011;3570;43.080;25.628;2022-10-16T15:04:54;5.13;;;2.80;;
7057;SDS011;3570;43.080;25.628;2022-10-16T15:07:20;7.87;;;3.80;;
7057;SDS011;3570;43.080;25.628;2022-10-16T15:09:46;5.23;;;3.70;;
7057;SDS011;3570;43.080;25.628;2022-10-16T15:12:12;8.33;;;4.07;;
7057;SDS011;3570;43.080;25.628;2022-10-16T15:14:37;5.63;;;3.43;;
7057;SDS011;3570;43.080;25.628;2022-10-16T15:17:03;7.03;;;3.37;;
7057;SDS011;3570;43.080;25.628;2022-10-16T15:19:29;6.03;;;3.40;;
7057;SDS011;3570;43.080;25.628;2022-10-16T15:21:54;5.00;;;3.27;;
7057;SDS011;3570;43.080;25.628;2022-10-16T15:24:20;4.83;;;3.67;;
7057;SDS011;3570;43.080;25.628;2022-10-16T15:26:46;4.87;;;3.77;;
7057;SDS011;3570;43.080;25.628;2022-10-16T15:29:12;4.70;;;4.13;;
7057;SDS011;3570;43.080;25.628;2022-10-16T15:31:38;4.80;;;3.40;;
7057;SDS011;3570;43.080;25.628;2022-10-16T15:34:08;5.23;;;3.93;;
7057;SDS011;3570;43.080;25.628;2022-10-16T15:36:34;5.63;;;3.80;;
7057;SDS011;3570;43.080;25.628;2022-10-16T15:39:05;5.60;;;4.30;;
7057;SDS011;3570;43.080;25.628;2022-10-16T15:41:39;5.07;;;4.00;;
7057;SDS011;3570;43.080;25.628;2022-10-16T15:44:04;6.80;;;4.27;;
7057;SDS011;3570;43.080;25.628;2022-10-16T15:46:30;7.27;;;3.97;;
7057;SDS011;3570;43.080;25.628;2022-10-16T15:48:57;5.87;;;4.10;;
7057;SDS011;3570;43.080;25.628;2022-10-16T15:51:23;6.57;;;4.33;;
7057;SDS011;3570;43.080;25.628;2022-10-16T15:53:49;5.30;;;3.90;;
7057;SDS011;3570;43.080;25.628;2022-10-16T15:56:16;6.63;;;3.90;;
7057;SDS011;3570;43.080;25.628;2022-10-16T15:58:43;4.37;;;3.90;;
7057;SDS011;3570;43.080;25.628;2022-10-16T16:01:09;4.63;;;4.10;;
7057;SDS011;3570;43.080;25.628;2022-10-16T16:03:36;5.47;;;4.13;;
7057;SDS011;3570;43.080;25.628;2022-10-16T16:06:04;6.80;;;4.10;;
7057;SDS011;3570;43.080;25.628;2022-10-16T16:08:32;8.23;;;3.77;;
7057;SDS011;3570;43.080;25.628;2022-10-16T16:10:59;4.83;;;4.07;;
7057;SDS011;3570;43.080;25.628;2022-10-16T16:13:30;4.50;;;3.77;;
7057;SDS011;3570;43.080;25.628;2022-10-16T16:15:56;4.97;;;4.00;;
7057;SDS011;3570;43.080;25.628;2022-10-16T16:18:21;4.73;;;3.77;;
7057;SDS011;3570;43.080;25.628;2022-10-16T16:20:48;4.67;;;3.73;;
7057;SDS011;3570;43.080;25.628;2022-10-16T16:23:14;5.70;;;4.07;;
7057;SDS011;3570;43.080;25.628;2022-10-16T16:25:40;5.80;;;3.53;;
7057;SDS011;3570;43.080;25.628;2022-10-16T16:28:06;4.67;;;3.57;;
7057;SDS011;3570;43.080;25.628;2022-10-16T16:30:32;5.73;;;4.07;;
7057;SDS011;3570;43.080;25.628;2022-10-16T16:32:57;6.40;;;3.97;;
7057;SDS011;3570;43.080;25.628;2022-10-16T16:35:23;9.83;;;4.47;;
7057;SDS011;3570;43.080;25.628;2022-10-16T16:37:49;8.60;;;5.10;;
7057;SDS011;3570;43.080;25.628;2022-10-16T16:40:14;7.97;;;4.63;;
7057;SDS011;3570;43.080;25.628;2022-10-16T16:42:40;8.07;;;4.93;;
7057;SDS011;3570;43.080;25.628;2022-10-16T16:45:05;6.43;;;4.67;;
7057;SDS011;3570;43.080;25.628;2022-10-16T16:47:31;8.60;;;4.90;;
7057;SDS011;3570;43.080;25.628;2022-10-16T16:49:57;7.10;;;5.47;;
7057;SDS011;3570;43.080;25.628;2022-10-16T16:52:22;8.03;;;4.90;;
7057;SDS011;3570;43.080;25.628;2022-10-16T16:54:48;7.53;;;4.90;;
7057;SDS011;3570;43.080;25.628;2022-10-16T16:57:17;7.37;;;5.33;;
7057;SDS011;3570;43.080;25.628;2022-10-16T16:59:44;6.73;;;5.03;;
7057;SDS011;3570;43.080;25.628;2022-10-16T17:02:09;7.83;;;5.23;;
7057;SDS011;3570;43.080;25.628;2022-10-16T17:04:35;10.60;;;5.43;;
7057;SDS011;3570;43.080;25.628;2022-10-16T17:07:00;7.27;;;5.20;;
7057;SDS011;3570;43.080;25.628;2022-10-16T17:09:26;8.27;;;5.77;;
7057;SDS011;3570;43.080;25.628;2022-10-16T17:11:51;9.07;;;6.03;;
7057;SDS011;3570;43.080;25.628;2022-10-16T17:14:17;10.40;;;5.90;;
7057;SDS011;3570;43.080;25.628;2022-10-16T17:16:43;8.53;;;6.13;;
7057;SDS011;3570;43.080;25.628;2022-10-16T17:19:10;9.57;;;5.57;;
7057;SDS011;3570;43.080;25.628;2022-10-16T17:21:37;10.30;;;6.67;;
7057;SDS011;3570;43.080;25.628;2022-10-16T17:24:03;8.73;;;5.40;;
7057;SDS011;3570;43.080;25.628;2022-10-16T17:26:30;10.23;;;6.20;;
7057;SDS011;3570;43.080;25.628;2022-10-16T17:28:57;9.87;;;6.83;;
7057;SDS011;3570;43.080;25.628;2022-10-16T17:31:25;11.63;;;7.83;;
7057;SDS011;3570;43.080;25.628;2022-10-16T17:33:55;14.60;;;7.77;;
7057;SDS011;3570;43.080;25.628;2022-10-16T17:36:22;12.70;;;6.80;;
7057;SDS011;3570;43.080;25.628;2022-10-16T17:38:48;10.40;;;6.60;;
7057;SDS011;3570;43.080;25.628;2022-10-16T17:41:18;13.50;;;6.73;;
7057;SDS011;3570;43.080;25.628;2022-10-16T17:43:45;13.00;;;7.50;;
7057;SDS011;3570;43.080;25.628;2022-10-16T17:46:15;9.13;;;6.93;;
7057;SDS011;3570;43.080;25.628;2022-10-16T17:48:42;14.63;;;8.33;;
7057;SDS011;3570;43.080;25.628;2022-10-16T17:51:10;11.87;;;7.60;;
7057;SDS011;3570;43.080;25.628;2022-10-16T17:53:37;12.70;;;7.27;;
7057;SDS011;3570;43.080;25.628;2022-10-16T17:56:04;10.03;;;6.47;;
7057;SDS011;3570;43.080;25.628;2022-10-16T17:58:38;16.73;;;6.67;;
7057;SDS011;3570;43.080;25.628;2022-10-16T18:01:12;9.27;;;5.60;;
7057;SDS011;3570;43.080;25.628;2022-10-16T18:03:39;8.53;;;5.67;;
7057;SDS011;3570;43.080;25.628;2022-10-16T18:06:04;12.27;;;6.50;;
7057;SDS011;3570;43.080;25.628;2022-10-16T18:08:30;11.63;;;6.70;;
7057;SDS011;3570;43.080;25.628;2022-10-16T18:10:55;10.97;;;7.40;;
7057;SDS011;3570;43.080;25.628;2022-10-16T18:13:21;10.60;;;7.10;;
7057;SDS011;3570;43.080;25.628;2022-10-16T18:15:46;13.00;;;6.47;;
7057;SDS011;3570;43.080;25.628;2022-10-16T18:18:12;12.30;;;7.17;;
7057;SDS011;3570;43.080;25.628;2022-10-16T18:20:38;11.87;;;7.03;;
7057;SDS011;3570;43.080;25.628;2022-10-16T18:23:04;13.30;;;8.17;;
7057;SDS011;3570;43.080;25.628;2022-10-16T18:25:29;16.97;;;7.30;;
7057;SDS011;3570;43.080;25.628;2022-10-16T18:27:55;17.27;;;8.13;;
7057;SDS011;3570;43.080;25.628;2022-10-16T18:30:20;12.00;;;7.17;;
7057;SDS011;3570;43.080;25.628;2022-10-16T18:32:46;12.73;;;7.77;;
7057;SDS011;3570;43.080;25.628;2022-10-16T18:35:12;12.13;;;7.87;;
7057;SDS011;3570;43.080;25.628;2022-10-16T18:37:37;12.77;;;8.00;;